sensor_id;sensor_type;location;lat;lon;timestamp;P1;durP1;ratioP1;P2;durP2;ratioP2
39050;SDS011;24805;55.852;37.644;2023-04-03T00:00:56;10.20;;;7.40;;
39050;SDS011;24805;55.852;37.644;2023-04-03T00:05:59;12.38;;;7.50;;
39050;SDS011;24805;55.852;37.644;2023-04-03T00:11:02;12.85;;;7.72;;
39050;SDS011;24805;55.852;37.644;2023-04-03T00:16:04;11.55;;;7.95;;
39050;SDS011;24805;55.852;37.644;2023-04-03T00:21:09;15.75;;;8.10;;
39050;SDS011;24805;55.852;37.644;2023-04-03T00:26:13;14.93;;;8.25;;
39050;SDS011;24805;55.852;37.644;2023-04-03T00:31:16;12.05;;;7.63;;
39050;SDS011;24805;55.852;37.644;2023-04-03T00:36:18;13.48;;;8.50;;
39050;SDS011;24805;55.852;37.644;2023-04-03T00:41:20;11.13;;;7.65;;
39050;SDS011;24805;55.852;37.644;2023-04-03T00:46:23;14.60;;;8.00;;
39050;SDS011;24805;55.852;37.644;2023-04-03T00:51:25;10.20;;;8.02;;
39050;SDS011;24805;55.852;37.644;2023-04-03T00:56:28;11.80;;;7.85;;
39050;SDS011;24805;55.852;37.644;2023-04-03T01:01:32;14.65;;;8.40;;
39050;SDS011;24805;55.852;37.644;2023-04-03T01:06:35;14.63;;;7.88;;
39050;SDS011;24805;55.852;37.644;2023-04-03T01:11:41;12.80;;;7.47;;
39050;SDS011;24805;55.852;37.644;2023-04-03T01:16:51;14.00;;;7.95;;
39050;SDS011;24805;55.852;37.644;2023-04-03T01:22:05;14.70;;;8.05;;
39050;SDS011;24805;55.852;37.644;2023-04-03T01:27:25;13.23;;;8.43;;
39050;SDS011;24805;55.852;37.644;2023-04-03T01:32:27;14.98;;;7.63;;
39050;SDS011;24805;55.852;37.644;2023-04-03T01:37:30;16.38;;;7.80;;
39050;SDS011;24805;55.852;37.644;2023-04-03T01:42:32;16.77;;;7.78;;
39050;SDS011;24805;55.852;37.644;2023-04-03T01:47:35;16.10;;;8.40;;
39050;SDS011;24805;55.852;37.644;2023-04-03T01:52:37;14.25;;;8.40;;
39050;SDS011;24805;55.852;37.644;2023-04-03T01:57:39;14.23;;;8.32;;
39050;SDS011;24805;55.852;37.644;2023-04-03T02:02:42;14.57;;;8.20;;
39050;SDS011;24805;55.852;37.644;2023-04-03T02:07:44;13.85;;;8.27;;
39050;SDS011;24805;55.852;37.644;2023-04-03T02:12:47;13.10;;;8.00;;
39050;SDS011;24805;55.852;37.644;2023-04-03T02:17:49;12.77;;;7.95;;
39050;SDS011;24805;55.852;37.644;2023-04-03T02:22:51;16.80;;;8.90;;
39050;SDS011;24805;55.852;37.644;2023-04-03T02:27:53;16.05;;;8.52;;
39050;SDS011;24805;55.852;37.644;2023-04-03T02:32:55;11.32;;;8.68;;
39050;SDS011;24805;55.852;37.644;2023-04-03T02:37:59;16.13;;;9.05;;
39050;SDS011;24805;55.852;37.644;2023-04-03T02:43:01;12.88;;;9.25;;
39050;SDS011;24805;55.852;37.644;2023-04-03T02:48:04;15.82;;;8.18;;
39050;SDS011;24805;55.852;37.644;2023-04-03T02:53:06;13.02;;;8.95;;
39050;SDS011;24805;55.852;37.644;2023-04-03T02:58:09;16.08;;;9.85;;
39050;SDS011;24805;55.852;37.644;2023-04-03T03:03:11;14.07;;;9.25;;
39050;SDS011;24805;55.852;37.644;2023-04-03T03:08:15;14.35;;;9.02;;
39050;SDS011;24805;55.852;37.644;2023-04-03T03:13:17;19.65;;;10.43;;
39050;SDS011;24805;55.852;37.644;2023-04-03T03:18:19;14.65;;;9.40;;
39050;SDS011;24805;55.852;37.644;2023-04-03T03:23:23;15.00;;;9.13;;
39050;SDS011;24805;55.852;37.644;2023-04-03T03:28:27;16.45;;;10.55;;
39050;SDS011;24805;55.852;37.644;2023-04-03T03:33:30;13.65;;;10.27;;
39050;SDS011;24805;55.852;37.644;2023-04-03T03:38:33;16.65;;;10.52;;
39050;SDS011;24805;55.852;37.644;2023-04-03T03:43:36;16.30;;;11.57;;
39050;SDS011;24805;55.852;37.644;2023-04-03T03:48:40;21.02;;;12.10;;
39050;SDS011;24805;55.852;37.644;2023-04-03T03:53:42;15.48;;;12.10;;
39050;SDS011;24805;55.852;37.644;2023-04-03T03:58:48;18.95;;;12.88;;
39050;SDS011;24805;55.852;37.644;2023-04-03T04:03:51;19.25;;;12.50;;
39050;SDS011;24805;55.852;37.644;2023-04-03T04:09:00;21.10;;;13.18;;
39050;SDS011;24805;55.852;37.644;2023-04-03T04:14:04;18.85;;;13.48;;
39050;SDS011;24805;55.852;37.644;2023-04-03T04:19:06;19.08;;;13.82;;
39050;SDS011;24805;55.852;37.644;2023-04-03T04:24:11;26.20;;;16.60;;
39050;SDS011;24805;55.852;37.644;2023-04-03T04:29:13;27.17;;;17.00;;
39050;SDS011;24805;55.852;37.644;2023-04-03T04:34:18;25.80;;;17.55;;
39050;SDS011;24805;55.852;37.644;2023-04-03T04:39:21;27.42;;;18.02;;
39050;SDS011;24805;55.852;37.644;2023-04-03T04:44:24;29.48;;;17.38;;
39050;SDS011;24805;55.852;37.644;2023-04-03T04:49:27;27.30;;;16.05;;
39050;SDS011;24805;55.852;37.644;2023-04-03T04:54:29;30.65;;;17.35;;
39050;SDS011;24805;55.852;37.644;2023-04-03T04:59:32;27.20;;;16.67;;
39050;SDS011;24805;55.852;37.644;2023-04-03T05:04:35;31.13;;;16.58;;
39050;SDS011;24805;55.852;37.644;2023-04-03T05:09:43;25.77;;;15.63;;
39050;SDS011;24805;55.852;37.644;2023-04-03T05:14:47;23.23;;;14.52;;
39050;SDS011;24805;55.852;37.644;2023-04-03T05:19:50;20.63;;;14.65;;
39050;SDS011;24805;55.852;37.644;2023-04-03T05:24:54;25.02;;;15.30;;
39050;SDS011;24805;55.852;37.644;2023-04-03T05:29:57;24.13;;;15.50;;
39050;SDS011;24805;55.852;37.644;2023-04-03T05:35:00;23.67;;;13.35;;
39050;SDS011;24805;55.852;37.644;2023-04-03T05:40:04;19.17;;;12.70;;
39050;SDS011;24805;55.852;37.644;2023-04-03T05:45:08;15.35;;;11.48;;
39050;SDS011;24805;55.852;37.644;2023-04-03T05:50:11;19.10;;;11.40;;
39050;SDS011;24805;55.852;37.644;2023-04-03T05:55:13;18.23;;;10.38;;
39050;SDS011;24805;55.852;37.644;2023-04-03T06:00:16;27.65;;;11.82;;
39050;SDS011;24805;55.852;37.644;2023-04-03T06:05:27;21.02;;;12.20;;
39050;SDS011;24805;55.852;37.644;2023-04-03T06:10:30;20.00;;;11.75;;
39050;SDS011;24805;55.852;37.644;2023-04-03T06:15:32;19.20;;;11.10;;
39050;SDS011;24805;55.852;37.644;2023-04-03T06:20:35;16.77;;;11.32;;
39050;SDS011;24805;55.852;37.644;2023-04-03T06:25:38;17.45;;;11.50;;
39050;SDS011;24805;55.852;37.644;2023-04-03T06:30:40;21.05;;;11.70;;
39050;SDS011;24805;55.852;37.644;2023-04-03T06:35:42;18.80;;;11.68;;
39050;SDS011;24805;55.852;37.644;2023-04-03T06:40:44;20.52;;;11.60;;
39050;SDS011;24805;55.852;37.644;2023-04-03T06:45:47;19.73;;;12.70;;
39050;SDS011;24805;55.852;37.644;2023-04-03T06:50:49;21.98;;;12.63;;
39050;SDS011;24805;55.852;37.644;2023-04-03T06:55:51;20.13;;;12.88;;
39050;SDS011;24805;55.852;37.644;2023-04-03T07:00:53;18.40;;;12.00;;
39050;SDS011;24805;55.852;37.644;2023-04-03T07:05:56;24.40;;;12.93;;
39050;SDS011;24805;55.852;37.644;2023-04-03T07:10:58;19.55;;;12.15;;
39050;SDS011;24805;55.852;37.644;2023-04-03T07:16:00;23.55;;;11.75;;
39050;SDS011;24805;55.852;37.644;2023-04-03T07:21:03;26.52;;;12.02;;
39050;SDS011;24805;55.852;37.644;2023-04-03T07:26:06;18.45;;;11.68;;
39050;SDS011;24805;55.852;37.644;2023-04-03T07:31:12;22.90;;;12.00;;
39050;SDS011;24805;55.852;37.644;2023-04-03T07:36:19;17.02;;;11.15;;
39050;SDS011;24805;55.852;37.644;2023-04-03T07:41:23;22.42;;;11.57;;
39050;SDS011;24805;55.852;37.644;2023-04-03T07:46:25;20.38;;;12.77;;
39050;SDS011;24805;55.852;37.644;2023-04-03T07:51:28;19.70;;;11.50;;
39050;SDS011;24805;55.852;37.644;2023-04-03T07:56:31;23.45;;;12.27;;
39050;SDS011;24805;55.852;37.644;2023-04-03T08:01:33;20.27;;;11.32;;
39050;SDS011;24805;55.852;37.644;2023-04-03T08:06:36;15.02;;;10.88;;
39050;SDS011;24805;55.852;37.644;2023-04-03T08:11:47;21.73;;;11.35;;
39050;SDS011;24805;55.852;37.644;2023-04-03T08:16:49;16.67;;;10.65;;
39050;SDS011;24805;55.852;37.644;2023-04-03T08:21:52;18.48;;;11.00;;
39050;SDS011;24805;55.852;37.644;2023-04-03T08:26:59;23.13;;;11.05;;
39050;SDS011;24805;55.852;37.644;2023-04-03T08:32:04;14.13;;;9.80;;
39050;SDS011;24805;55.852;37.644;2023-04-03T08:37:07;19.33;;;10.30;;
39050;SDS011;24805;55.852;37.644;2023-04-03T08:42:17;22.15;;;10.05;;
39050;SDS011;24805;55.852;37.644;2023-04-03T08:53:13;16.73;;;11.65;;
39050;SDS011;24805;55.852;37.644;2023-04-03T08:58:21;16.38;;;9.68;;
39050;SDS011;24805;55.852;37.644;2023-04-03T09:03:30;21.52;;;9.50;;
39050;SDS011;24805;55.852;37.644;2023-04-03T09:08:49;23.83;;;14.68;;
39050;SDS011;24805;55.852;37.644;2023-04-03T09:24:37;17.23;;;10.32;;
39050;SDS011;24805;55.852;37.644;2023-04-03T09:29:41;17.85;;;9.75;;
39050;SDS011;24805;55.852;37.644;2023-04-03T09:34:45;18.55;;;10.68;;
39050;SDS011;24805;55.852;37.644;2023-04-03T09:39:52;23.15;;;10.43;;
39050;SDS011;24805;55.852;37.644;2023-04-03T09:45:00;16.45;;;9.50;;
39050;SDS011;24805;55.852;37.644;2023-04-03T09:55:16;18.33;;;9.75;;
39050;SDS011;24805;55.852;37.644;2023-04-03T10:00:23;21.95;;;10.32;;
39050;SDS011;24805;55.852;37.644;2023-04-03T10:10:33;18.40;;;10.45;;
39050;SDS011;24805;55.852;37.644;2023-04-03T10:15:40;18.88;;;10.20;;
39050;SDS011;24805;55.852;37.644;2023-04-03T10:20:48;23.00;;;9.90;;
39050;SDS011;24805;55.852;37.644;2023-04-03T10:26:00;22.23;;;9.98;;
39050;SDS011;24805;55.852;37.644;2023-04-03T10:58:35;16.30;;;9.00;;
39050;SDS011;24805;55.852;37.644;2023-04-03T11:03:42;18.30;;;9.73;;
39050;SDS011;24805;55.852;37.644;2023-04-03T11:08:51;17.92;;;10.23;;
39050;SDS011;24805;55.852;37.644;2023-04-03T11:24:25;18.33;;;9.25;;
39050;SDS011;24805;55.852;37.644;2023-04-03T11:29:31;23.63;;;8.98;;
39050;SDS011;24805;55.852;37.644;2023-04-03T11:34:41;11.77;;;7.43;;
39050;SDS011;24805;55.852;37.644;2023-04-03T11:39:57;13.60;;;6.90;;
39050;SDS011;24805;55.852;37.644;2023-04-03T11:55:44;13.93;;;7.22;;
39050;SDS011;24805;55.852;37.644;2023-04-03T12:01:03;24.70;;;6.47;;
39050;SDS011;24805;55.852;37.644;2023-04-03T12:11:37;12.80;;;6.93;;
39050;SDS011;24805;55.852;37.644;2023-04-03T12:48:01;13.23;;;8.88;;
39050;SDS011;24805;55.852;37.644;2023-04-03T12:53:10;18.27;;;9.30;;
39050;SDS011;24805;55.852;37.644;2023-04-03T12:58:16;13.25;;;8.57;;
39050;SDS011;24805;55.852;37.644;2023-04-03T13:03:25;18.10;;;8.48;;
39050;SDS011;24805;55.852;37.644;2023-04-03T13:08:31;14.88;;;8.63;;
39050;SDS011;24805;55.852;37.644;2023-04-03T13:13:33;19.00;;;8.43;;
39050;SDS011;24805;55.852;37.644;2023-04-03T13:18:36;13.60;;;8.23;;
39050;SDS011;24805;55.852;37.644;2023-04-03T13:23:40;18.58;;;12.25;;
39050;SDS011;24805;55.852;37.644;2023-04-03T13:28:45;19.08;;;8.50;;
39050;SDS011;24805;55.852;37.644;2023-04-03T13:44:23;14.93;;;6.63;;
39050;SDS011;24805;55.852;37.644;2023-04-03T13:54:32;13.07;;;6.65;;
39050;SDS011;24805;55.852;37.644;2023-04-03T13:59:39;11.43;;;6.28;;
39050;SDS011;24805;55.852;37.644;2023-04-03T14:09:44;16.85;;;7.63;;
39050;SDS011;24805;55.852;37.644;2023-04-03T14:14:46;13.05;;;7.10;;
39050;SDS011;24805;55.852;37.644;2023-04-03T14:19:49;14.93;;;7.57;;
39050;SDS011;24805;55.852;37.644;2023-04-03T14:24:52;11.18;;;7.40;;
39050;SDS011;24805;55.852;37.644;2023-04-03T14:29:55;17.70;;;7.70;;
39050;SDS011;24805;55.852;37.644;2023-04-03T14:34:59;11.60;;;7.75;;
39050;SDS011;24805;55.852;37.644;2023-04-03T14:40:03;18.25;;;7.60;;
39050;SDS011;24805;55.852;37.644;2023-04-03T14:45:09;14.52;;;8.18;;
39050;SDS011;24805;55.852;37.644;2023-04-03T14:50:14;14.32;;;8.30;;
39050;SDS011;24805;55.852;37.644;2023-04-03T14:55:25;13.40;;;8.48;;
39050;SDS011;24805;55.852;37.644;2023-04-03T15:00:29;13.90;;;9.82;;
39050;SDS011;24805;55.852;37.644;2023-04-03T15:05:31;12.80;;;7.53;;
39050;SDS011;24805;55.852;37.644;2023-04-03T15:10:33;11.07;;;7.20;;
39050;SDS011;24805;55.852;37.644;2023-04-03T15:15:35;13.95;;;7.57;;
39050;SDS011;24805;55.852;37.644;2023-04-03T15:20:38;16.83;;;8.65;;
39050;SDS011;24805;55.852;37.644;2023-04-03T15:25:45;17.75;;;9.18;;
39050;SDS011;24805;55.852;37.644;2023-04-03T15:30:49;18.55;;;8.50;;
39050;SDS011;24805;55.852;37.644;2023-04-03T15:35:51;17.27;;;8.20;;
39050;SDS011;24805;55.852;37.644;2023-04-03T15:40:56;12.65;;;7.22;;
39050;SDS011;24805;55.852;37.644;2023-04-03T15:45:59;18.77;;;11.93;;
39050;SDS011;24805;55.852;37.644;2023-04-03T15:51:02;16.80;;;12.00;;
39050;SDS011;24805;55.852;37.644;2023-04-03T15:56:04;15.45;;;8.40;;
39050;SDS011;24805;55.852;37.644;2023-04-03T16:01:08;10.50;;;8.25;;
39050;SDS011;24805;55.852;37.644;2023-04-03T16:06:13;12.70;;;8.07;;
39050;SDS011;24805;55.852;37.644;2023-04-03T16:11:17;12.32;;;7.95;;
39050;SDS011;24805;55.852;37.644;2023-04-03T16:16:19;11.80;;;8.13;;
39050;SDS011;24805;55.852;37.644;2023-04-03T16:21:21;13.75;;;9.30;;
39050;SDS011;24805;55.852;37.644;2023-04-03T16:26:26;18.70;;;9.23;;
39050;SDS011;24805;55.852;37.644;2023-04-03T16:31:28;22.83;;;13.90;;
39050;SDS011;24805;55.852;37.644;2023-04-03T16:36:30;18.80;;;12.93;;
39050;SDS011;24805;55.852;37.644;2023-04-03T16:41:33;20.02;;;12.82;;
39050;SDS011;24805;55.852;37.644;2023-04-03T16:46:35;19.98;;;12.75;;
39050;SDS011;24805;55.852;37.644;2023-04-03T16:51:37;24.67;;;13.55;;
39050;SDS011;24805;55.852;37.644;2023-04-03T16:56:39;31.52;;;17.08;;
39050;SDS011;24805;55.852;37.644;2023-04-03T17:01:41;24.83;;;15.68;;
39050;SDS011;24805;55.852;37.644;2023-04-03T17:06:44;24.95;;;16.52;;
39050;SDS011;24805;55.852;37.644;2023-04-03T17:11:46;31.10;;;17.85;;
39050;SDS011;24805;55.852;37.644;2023-04-03T17:16:50;30.27;;;17.77;;
39050;SDS011;24805;55.852;37.644;2023-04-03T17:21:52;32.13;;;19.95;;
39050;SDS011;24805;55.852;37.644;2023-04-03T17:26:55;30.52;;;18.45;;
39050;SDS011;24805;55.852;37.644;2023-04-03T17:31:57;24.25;;;17.88;;
39050;SDS011;24805;55.852;37.644;2023-04-03T17:36:59;19.77;;;15.00;;
39050;SDS011;24805;55.852;37.644;2023-04-03T17:42:01;24.98;;;15.93;;
39050;SDS011;24805;55.852;37.644;2023-04-03T17:47:04;23.25;;;15.68;;
39050;SDS011;24805;55.852;37.644;2023-04-03T17:52:06;22.23;;;15.32;;
39050;SDS011;24805;55.852;37.644;2023-04-03T17:57:08;21.63;;;14.43;;
39050;SDS011;24805;55.852;37.644;2023-04-03T18:02:10;17.83;;;14.68;;
39050;SDS011;24805;55.852;37.644;2023-04-03T18:07:12;17.40;;;14.27;;
39050;SDS011;24805;55.852;37.644;2023-04-03T18:12:15;20.67;;;14.02;;
39050;SDS011;24805;55.852;37.644;2023-04-03T18:17:17;20.65;;;15.13;;
39050;SDS011;24805;55.852;37.644;2023-04-03T18:22:20;18.33;;;14.35;;
39050;SDS011;24805;55.852;37.644;2023-04-03T18:27:25;19.77;;;14.27;;
39050;SDS011;24805;55.852;37.644;2023-04-03T18:32:28;19.80;;;15.95;;
39050;SDS011;24805;55.852;37.644;2023-04-03T18:37:30;16.65;;;11.85;;
39050;SDS011;24805;55.852;37.644;2023-04-03T18:42:32;14.13;;;11.73;;
39050;SDS011;24805;55.852;37.644;2023-04-03T18:47:35;17.20;;;13.15;;
39050;SDS011;24805;55.852;37.644;2023-04-03T18:52:37;15.93;;;11.20;;
39050;SDS011;24805;55.852;37.644;2023-04-03T18:57:40;16.55;;;11.40;;
39050;SDS011;24805;55.852;37.644;2023-04-03T19:02:42;15.50;;;11.18;;
39050;SDS011;24805;55.852;37.644;2023-04-03T19:07:45;15.52;;;11.57;;
39050;SDS011;24805;55.852;37.644;2023-04-03T19:12:49;14.50;;;11.32;;
39050;SDS011;24805;55.852;37.644;2023-04-03T19:17:52;16.83;;;11.88;;
39050;SDS011;24805;55.852;37.644;2023-04-03T19:22:54;14.50;;;11.35;;
39050;SDS011;24805;55.852;37.644;2023-04-03T19:27:56;16.02;;;11.73;;
39050;SDS011;24805;55.852;37.644;2023-04-03T19:32:58;17.48;;;10.77;;
39050;SDS011;24805;55.852;37.644;2023-04-03T19:38:01;14.77;;;11.27;;
39050;SDS011;24805;55.852;37.644;2023-04-03T19:43:03;12.48;;;10.73;;
39050;SDS011;24805;55.852;37.644;2023-04-03T19:48:05;15.55;;;12.00;;
39050;SDS011;24805;55.852;37.644;2023-04-03T19:53:08;15.05;;;11.75;;
39050;SDS011;24805;55.852;37.644;2023-04-03T19:58:12;16.23;;;11.20;;
39050;SDS011;24805;55.852;37.644;2023-04-03T20:03:14;16.00;;;11.73;;
39050;SDS011;24805;55.852;37.644;2023-04-03T20:08:17;22.77;;;17.08;;
39050;SDS011;24805;55.852;37.644;2023-04-03T20:13:20;17.63;;;12.20;;
39050;SDS011;24805;55.852;37.644;2023-04-03T20:18:22;17.23;;;12.90;;
39050;SDS011;24805;55.852;37.644;2023-04-03T20:23:25;15.05;;;12.80;;
39050;SDS011;24805;55.852;37.644;2023-04-03T20:28:27;18.02;;;13.05;;
39050;SDS011;24805;55.852;37.644;2023-04-03T20:33:30;18.10;;;12.55;;
39050;SDS011;24805;55.852;37.644;2023-04-03T20:38:32;15.65;;;12.25;;
39050;SDS011;24805;55.852;37.644;2023-04-03T20:43:34;15.85;;;11.38;;
39050;SDS011;24805;55.852;37.644;2023-04-03T20:48:39;14.25;;;11.77;;
39050;SDS011;24805;55.852;37.644;2023-04-03T20:53:42;16.77;;;12.25;;
39050;SDS011;24805;55.852;37.644;2023-04-03T20:58:44;16.90;;;12.63;;
39050;SDS011;24805;55.852;37.644;2023-04-03T21:03:48;18.73;;;13.60;;
39050;SDS011;24805;55.852;37.644;2023-04-03T21:20:15;15.45;;;12.57;;
39050;SDS011;24805;55.852;37.644;2023-04-03T21:25:17;17.10;;;13.52;;
39050;SDS011;24805;55.852;37.644;2023-04-03T21:30:19;17.05;;;14.85;;
39050;SDS011;24805;55.852;37.644;2023-04-03T21:35:22;20.33;;;14.40;;
39050;SDS011;24805;55.852;37.644;2023-04-03T21:40:24;19.55;;;13.80;;
39050;SDS011;24805;55.852;37.644;2023-04-03T21:45:27;19.10;;;14.18;;
39050;SDS011;24805;55.852;37.644;2023-04-03T21:50:30;17.27;;;14.13;;
39050;SDS011;24805;55.852;37.644;2023-04-03T21:55:33;18.70;;;14.48;;
39050;SDS011;24805;55.852;37.644;2023-04-03T22:00:35;17.83;;;14.95;;
39050;SDS011;24805;55.852;37.644;2023-04-03T22:05:38;19.98;;;14.73;;
39050;SDS011;24805;55.852;37.644;2023-04-03T22:10:40;17.80;;;14.38;;
39050;SDS011;24805;55.852;37.644;2023-04-03T22:15:45;20.55;;;15.73;;
39050;SDS011;24805;55.852;37.644;2023-04-03T22:20:48;19.23;;;15.40;;
39050;SDS011;24805;55.852;37.644;2023-04-03T22:25:56;20.30;;;15.15;;
39050;SDS011;24805;55.852;37.644;2023-04-03T22:31:03;18.63;;;15.90;;
39050;SDS011;24805;55.852;37.644;2023-04-03T22:36:10;20.50;;;15.27;;
39050;SDS011;24805;55.852;37.644;2023-04-03T22:41:13;22.25;;;15.88;;
39050;SDS011;24805;55.852;37.644;2023-04-03T22:46:15;18.42;;;15.20;;
39050;SDS011;24805;55.852;37.644;2023-04-03T22:51:17;17.55;;;14.90;;
39050;SDS011;24805;55.852;37.644;2023-04-03T22:56:19;17.48;;;14.43;;
39050;SDS011;24805;55.852;37.644;2023-04-03T23:01:25;20.60;;;15.32;;
39050;SDS011;24805;55.852;37.644;2023-04-03T23:06:28;19.77;;;15.00;;
39050;SDS011;24805;55.852;37.644;2023-04-03T23:16:32;17.90;;;14.50;;
39050;SDS011;24805;55.852;37.644;2023-04-03T23:21:34;16.52;;;13.25;;
39050;SDS011;24805;55.852;37.644;2023-04-03T23:26:37;16.05;;;13.52;;
39050;SDS011;24805;55.852;37.644;2023-04-03T23:31:39;19.27;;;14.77;;
39050;SDS011;24805;55.852;37.644;2023-04-03T23:36:41;17.60;;;13.75;;
39050;SDS011;24805;55.852;37.644;2023-04-03T23:41:43;15.85;;;12.82;;
39050;SDS011;24805;55.852;37.644;2023-04-03T23:46:46;17.08;;;12.38;;
39050;SDS011;24805;55.852;37.644;2023-04-03T23:51:48;15.60;;;12.63;;
39050;SDS011;24805;55.852;37.644;2023-04-03T23:56:50;14.77;;;12.35;;
